createdAt,value
2019-01-24T00:00:31.907Z,77.92
2019-01-24T00:03:05.901Z,77.79
2019-01-24T00:05:44.708Z,77.79
2019-01-24T00:08:17.557Z,77.74
2019-01-24T00:10:51.394Z,77.85
2019-01-24T00:13:25.659Z,77.92
2019-01-24T00:15:59.556Z,77.93
2019-01-24T00:18:33.203Z,77.95
2019-01-24T00:21:07.445Z,78.07
2019-01-24T00:23:40.434Z,78.14
2019-01-24T00:26:14.377Z,78.25
2019-01-24T00:28:47.804Z,78.25
2019-01-24T00:31:21.358Z,78.15
2019-01-24T00:33:54.446Z,77.76
2019-01-24T00:36:31.236Z,77.88
2019-01-24T00:39:07.366Z,78.15
2019-01-24T00:41:40.484Z,78.40
2019-01-24T00:44:15.901Z,78.48
2019-01-24T00:46:49.908Z,78.70
2019-01-24T00:49:22.655Z,78.45
2019-01-24T00:51:55.950Z,78.42
2019-01-24T00:54:28.874Z,78.73
2019-01-24T00:57:01.895Z,78.87
2019-01-24T00:59:37.167Z,79.17
2019-01-24T01:02:10.363Z,79.42
2019-01-24T01:04:43.853Z,79.38
2019-01-24T01:07:17.381Z,79.57
2019-01-24T01:09:50.576Z,79.80
2019-01-24T01:12:23.395Z,79.88
2019-01-24T01:14:56.691Z,79.98
2019-01-24T01:17:29.674Z,80.04
2019-01-24T01:20:03.948Z,80.02
2019-01-24T01:22:38.764Z,80.11
2019-01-24T01:25:12.328Z,80.20
2019-01-24T01:27:46.272Z,80.28
2019-01-24T01:30:23.831Z,80.37
2019-01-24T01:32:57.154Z,80.23
2019-01-24T01:35:31.597Z,80.13
2019-01-24T01:38:06.689Z,80.00
2019-01-24T01:40:39.587Z,79.74
2019-01-24T01:43:12.517Z,79.60
2019-01-24T01:45:46.058Z,79.80
2019-01-24T01:48:20.893Z,80.01
2019-01-24T01:50:53.722Z,80.07
2019-01-24T01:53:27.258Z,79.81
2019-01-24T01:56:00.216Z,79.76
2019-01-24T01:58:33.209Z,79.94
2019-01-24T02:01:07.391Z,79.62
2019-01-24T02:03:40.466Z,79.74
2019-01-24T02:06:13.449Z,80.05
2019-01-24T02:08:46.744Z,79.44
2019-01-24T02:11:19.599Z,79.63
2019-01-24T02:13:52.820Z,79.57
2019-01-24T02:16:26.098Z,79.19
2019-01-24T02:18:59.410Z,78.95
2019-01-24T02:21:33.020Z,79.29
2019-01-24T02:24:06.743Z,79.57
2019-01-24T02:26:39.617Z,79.61
2019-01-24T02:29:12.412Z,79.62
2019-01-24T02:31:45.828Z,79.76
2019-01-24T02:34:19.080Z,80.00
2019-01-24T02:36:52.563Z,80.11
2019-01-24T02:39:26.026Z,80.10
2019-01-24T02:41:59.266Z,79.83
2019-01-24T02:44:32.104Z,79.92
2019-01-24T02:47:06.855Z,80.00
2019-01-24T02:49:39.835Z,79.96
2019-01-24T02:52:12.840Z,79.99
2019-01-24T02:54:47.246Z,80.06
2019-01-24T02:57:20.879Z,80.06
2019-01-24T02:59:53.823Z,80.09
2019-01-24T03:02:27.147Z,80.06
2019-01-24T03:05:00.245Z,80.20
2019-01-24T03:07:33.825Z,80.10
2019-01-24T03:10:10.614Z,80.09
2019-01-24T03:12:44.071Z,80.27
2019-01-24T03:15:19.543Z,80.46
2019-01-24T03:17:53.361Z,80.61
2019-01-24T03:20:26.295Z,80.69
2019-01-24T03:22:59.540Z,80.65
2019-01-24T03:25:32.827Z,80.68
2019-01-24T03:28:06.276Z,80.65
2019-01-24T03:30:39.101Z,80.68
2019-01-24T03:33:16.497Z,80.72
2019-01-24T03:35:49.347Z,80.69
2019-01-24T03:38:22.295Z,80.70
2019-01-24T03:40:55.646Z,80.74
2019-01-24T03:43:28.770Z,80.94
2019-01-24T03:46:01.459Z,80.98
2019-01-24T03:48:35.878Z,81.08
2019-01-24T03:51:08.680Z,81.14
2019-01-24T03:53:41.739Z,81.19
2019-01-24T03:56:15.048Z,81.30
2019-01-24T03:58:48.030Z,81.39
2019-01-24T04:01:20.936Z,81.40
2019-01-24T04:03:55.108Z,81.46
2019-01-24T04:06:28.005Z,81.35
2019-01-24T04:09:01.193Z,81.33
2019-01-24T04:11:35.505Z,81.33
2019-01-24T04:14:08.620Z,81.40
2019-01-24T04:16:41.500Z,81.35
2019-01-24T04:19:15.123Z,81.12
2019-01-24T04:21:48.092Z,81.03
2019-01-24T04:24:21.354Z,81.14
2019-01-24T04:26:54.624Z,81.23
2019-01-24T04:29:27.472Z,81.37
2019-01-24T04:32:00.419Z,81.36
2019-01-24T04:34:35.687Z,81.29
2019-01-24T04:37:09.084Z,81.32
2019-01-24T04:39:43.100Z,81.44
2019-01-24T04:42:16.452Z,81.46
2019-01-24T04:44:49.504Z,81.40
2019-01-24T04:47:22.464Z,81.47
2019-01-24T04:49:55.869Z,81.54
2019-01-24T04:52:28.829Z,81.51
2019-01-24T04:55:01.858Z,81.47
2019-01-24T04:57:35.839Z,81.39
2019-01-24T05:00:23.486Z,81.26
2019-01-24T05:02:56.576Z,81.29
2019-01-24T05:05:30.014Z,81.30
2019-01-24T05:08:02.986Z,81.42
2019-01-24T05:10:35.875Z,81.53
2019-01-24T05:13:11.041Z,81.42
2019-01-24T05:15:43.885Z,81.39
2019-01-24T05:18:17.760Z,81.37
2019-01-24T05:20:50.850Z,81.39
2019-01-24T05:23:23.709Z,81.45
2019-01-24T05:25:56.708Z,81.54
2019-01-24T05:28:30.308Z,81.55
2019-01-24T05:31:03.733Z,81.56
2019-01-24T05:33:39.896Z,81.27
2019-01-24T05:36:12.749Z,81.16
2019-01-24T05:38:47.323Z,81.18
2019-01-24T05:41:20.171Z,81.31
2019-01-24T05:43:53.664Z,81.38
2019-01-24T05:46:28.450Z,81.49
2019-01-24T05:49:01.291Z,81.45
2019-01-24T05:51:34.398Z,81.46
2019-01-24T05:54:08.014Z,81.36
2019-01-24T05:56:41.253Z,81.36
2019-01-24T05:59:14.434Z,81.40
2019-01-24T06:01:48.036Z,81.46
2019-01-24T06:04:20.956Z,81.35
2019-01-24T06:06:54.302Z,81.36
2019-01-24T06:09:28.031Z,81.39
2019-01-24T06:12:00.955Z,81.29
2019-01-24T06:14:34.542Z,81.09
2019-01-24T06:17:07.468Z,81.00
2019-01-24T06:19:41.316Z,80.96
2019-01-24T06:22:16.468Z,81.01
2019-01-24T06:24:49.362Z,80.75
2019-01-24T06:27:22.318Z,80.75
2019-01-24T06:29:55.132Z,80.89
2019-01-24T06:32:29.365Z,81.01
2019-01-24T06:35:02.303Z,81.05
2019-01-24T06:37:35.512Z,81.04
2019-01-24T06:40:10.405Z,81.08
2019-01-24T06:42:44.494Z,81.14
2019-01-24T06:45:21.107Z,81.17
2019-01-24T06:47:54.979Z,81.24
2019-01-24T06:50:30.323Z,81.36
2019-01-24T06:53:03.216Z,81.39
2019-01-24T06:55:36.280Z,81.52
2019-01-24T06:58:09.814Z,81.73
2019-01-24T07:00:42.993Z,81.76
2019-01-24T07:03:17.845Z,81.74
2019-01-24T07:05:55.500Z,81.82
2019-01-24T07:08:30.413Z,81.82
2019-01-24T07:11:05.512Z,81.88
2019-01-24T07:13:40.723Z,81.85
2019-01-24T07:16:21.220Z,81.88
2019-01-24T07:18:54.155Z,81.89
2019-01-24T07:21:27.793Z,81.88
2019-01-24T07:24:02.260Z,81.87
2019-01-24T07:26:36.238Z,81.84
2019-01-24T07:29:10.726Z,81.86
2019-01-24T07:31:46.740Z,81.87
2019-01-24T07:34:20.471Z,81.88
2019-01-24T07:36:54.010Z,81.80
2019-01-24T07:39:29.382Z,81.63
2019-01-24T07:42:03.182Z,81.60
2019-01-24T07:44:38.873Z,81.55
2019-01-24T07:47:12.828Z,81.48
2019-01-24T07:49:49.103Z,81.45
2019-01-24T07:52:22.061Z,81.55
2019-01-24T07:54:55.926Z,81.57
2019-01-24T07:57:30.695Z,81.66
2019-01-24T08:00:10.556Z,81.69
2019-01-24T08:02:46.131Z,81.75
2019-01-24T08:05:19.902Z,81.84
2019-01-24T08:07:55.256Z,81.85
2019-01-24T08:10:29.167Z,81.49
2019-01-24T08:13:02.736Z,81.38
2019-01-24T08:15:39.355Z,81.35
2019-01-24T08:18:12.412Z,81.42
2019-01-24T08:20:47.501Z,81.40
2019-01-24T08:23:20.984Z,81.34
2019-01-24T08:25:55.140Z,81.23
2019-01-24T08:28:29.849Z,81.19
2019-01-24T08:31:04.414Z,81.25
2019-01-24T08:33:45.064Z,81.26
2019-01-24T08:36:23.361Z,81.23
2019-01-24T08:38:57.080Z,81.34
2019-01-24T08:41:32.132Z,81.63
2019-01-24T08:44:08.100Z,81.84
2019-01-24T08:46:41.850Z,81.94
2019-01-24T08:49:15.850Z,82.07
2019-01-24T08:51:49.702Z,82.22
2019-01-24T08:54:22.631Z,82.19
2019-01-24T08:56:58.246Z,82.21
2019-01-24T08:59:31.384Z,82.25
2019-01-24T09:02:04.977Z,82.24
2019-01-24T09:04:38.447Z,82.17
2019-01-24T09:07:12.308Z,82.13
2019-01-24T09:09:48.947Z,82.22
2019-01-24T09:12:30.207Z,82.25
2019-01-24T09:15:07.110Z,82.38
2019-01-24T09:17:41.429Z,82.38
2019-01-24T09:20:17.512Z,82.41
2019-01-24T09:22:55.272Z,82.50
2019-01-24T09:25:36.710Z,82.55
2019-01-24T09:28:15.022Z,82.62
2019-01-24T09:30:50.431Z,82.63
2019-01-24T09:33:24.136Z,82.70
2019-01-24T09:36:03.359Z,82.81
2019-01-24T09:38:38.320Z,82.74
2019-01-24T09:41:12.686Z,82.68
2019-01-24T09:43:50.437Z,82.82
2019-01-24T09:46:24.884Z,83.04
2019-01-24T09:49:00.077Z,83.13
2019-01-24T09:51:33.836Z,82.88
2019-01-24T09:54:10.463Z,82.48
2019-01-24T09:56:43.779Z,82.08
2019-01-24T09:59:18.431Z,82.14
2019-01-24T10:01:52.081Z,82.27
2019-01-24T10:04:27.737Z,81.88
2019-01-24T10:07:02.835Z,81.35
2019-01-24T10:09:35.577Z,81.21
2019-01-24T10:12:10.582Z,81.29
2019-01-24T10:14:47.398Z,81.27
2019-01-24T10:17:22.305Z,81.54
2019-01-24T10:19:55.703Z,81.95
2019-01-24T10:22:28.706Z,81.10
2019-01-24T10:25:01.612Z,80.40
2019-01-24T10:27:35.903Z,79.72
2019-01-24T10:30:14.320Z,79.02
2019-01-24T10:32:47.822Z,79.60
2019-01-24T10:35:24.163Z,79.20
2019-01-24T10:38:00.570Z,79.31
2019-01-24T10:40:36.425Z,79.52
2019-01-24T10:43:10.323Z,79.66
2019-01-24T10:45:46.269Z,79.59
2019-01-24T10:48:20.808Z,79.45
2019-01-24T10:50:54.662Z,79.24
2019-01-24T10:53:29.453Z,77.75
2019-01-24T10:56:05.429Z,77.33
2019-01-24T10:58:41.526Z,75.68
2019-01-24T11:01:26.412Z,75.67
2019-01-24T11:04:01.567Z,75.21
2019-01-24T11:06:35.380Z,73.44
2019-01-24T11:09:10.776Z,72.79
2019-01-24T11:11:44.429Z,73.22
2019-01-24T11:14:17.733Z,72.81
2019-01-24T11:16:54.095Z,73.00
2019-01-24T11:19:27.057Z,72.29
2019-01-24T11:22:00.992Z,73.48
2019-01-24T11:24:35.436Z,73.67
2019-01-24T11:27:09.035Z,73.03
2019-01-24T11:29:42.437Z,71.90
2019-01-24T11:32:16.607Z,72.39
2019-01-24T11:34:50.709Z,72.58
2019-01-24T11:37:25.367Z,72.62
2019-01-24T11:40:01.519Z,72.64
2019-01-24T11:42:35.270Z,72.00
2019-01-24T11:45:12.658Z,72.38
2019-01-24T11:47:45.744Z,73.24
2019-01-24T11:50:23.023Z,73.03
2019-01-24T11:52:57.325Z,73.51
2019-01-24T11:55:30.369Z,73.96
2019-01-24T11:58:04.348Z,74.60
2019-01-24T12:00:48.536Z,75.28
2019-01-24T12:03:25.428Z,75.93
2019-01-24T12:06:00.234Z,76.92
2019-01-24T12:08:33.325Z,77.11
2019-01-24T12:11:07.300Z,77.56
2019-01-24T12:13:40.989Z,77.61
2019-01-24T12:16:13.841Z,78.14
2019-01-24T12:18:47.370Z,78.45
2019-01-24T12:21:21.849Z,78.14
2019-01-24T12:23:59.008Z,77.88
2019-01-24T12:26:32.307Z,77.84
2019-01-24T12:29:05.658Z,78.25
2019-01-24T12:31:39.503Z,78.33
2019-01-24T12:34:14.169Z,78.44
2019-01-24T12:36:47.974Z,78.74
2019-01-24T12:39:21.658Z,79.06
2019-01-24T12:41:58.825Z,79.15
2019-01-24T12:44:33.026Z,78.88
2019-01-24T12:47:09.522Z,78.88
2019-01-24T12:49:45.066Z,78.58
2019-01-24T12:52:18.593Z,77.91
2019-01-24T12:54:51.959Z,78.03
2019-01-24T12:57:25.127Z,78.29
2019-01-24T12:59:59.824Z,78.92
2019-01-24T13:02:33.245Z,79.52
2019-01-24T13:05:09.640Z,79.60
2019-01-24T13:07:43.592Z,80.28
2019-01-24T13:10:21.388Z,80.94
2019-01-24T13:12:57.024Z,81.12
2019-01-24T13:15:34.257Z,81.81
2019-01-24T13:18:11.108Z,82.13
2019-01-24T13:20:44.842Z,82.23
2019-01-24T13:23:20.869Z,82.03
2019-01-24T13:25:54.821Z,81.96
2019-01-24T13:28:29.658Z,81.94
2019-01-24T13:31:07.841Z,81.78
2019-01-24T13:33:41.713Z,81.83
2019-01-24T13:36:16.205Z,82.08
2019-01-24T13:38:49.197Z,82.29
2019-01-24T13:41:25.256Z,82.49
2019-01-24T13:43:59.702Z,82.14
2019-01-24T13:46:36.048Z,81.84
2019-01-24T13:49:10.955Z,81.75
2019-01-24T13:51:44.411Z,81.69
2019-01-24T13:54:18.712Z,81.93
2019-01-24T13:56:53.821Z,82.01
2019-01-24T13:59:27.739Z,82.12
2019-01-24T14:02:03.376Z,82.10
2019-01-24T14:04:45.320Z,82.17
2019-01-24T14:07:18.493Z,82.07
2019-01-24T14:10:03.667Z,82.10
2019-01-24T14:12:38.167Z,82.29
2019-01-24T14:15:17.711Z,82.49
2019-01-24T14:17:51.868Z,82.56
2019-01-24T14:20:25.803Z,82.70
2019-01-24T14:23:03.296Z,82.48
2019-01-24T14:25:37.621Z,82.38
2019-01-24T14:28:10.869Z,82.43
2019-01-24T14:30:45.426Z,82.34
2019-01-24T14:33:21.555Z,82.14
2019-01-24T14:35:56.410Z,81.93
2019-01-24T14:38:30.332Z,81.50
2019-01-24T14:41:06.138Z,81.29
2019-01-24T14:43:39.632Z,81.20
2019-01-24T14:46:18.189Z,80.99
2019-01-24T14:48:55.096Z,80.57
2019-01-24T14:51:29.027Z,80.02
2019-01-24T14:54:03.986Z,79.75
2019-01-24T14:56:37.444Z,79.67
2019-01-24T14:59:10.894Z,79.77
2019-01-24T15:01:45.009Z,79.88
2019-01-24T15:04:23.751Z,79.97
2019-01-24T15:06:59.882Z,79.95
2019-01-24T15:09:36.418Z,80.06
2019-01-24T15:12:11.273Z,80.11
2019-01-24T15:14:56.211Z,80.09
2019-01-24T15:17:32.355Z,80.05
2019-01-24T15:20:09.980Z,79.90
2019-01-24T15:22:49.851Z,79.88
2019-01-24T15:25:26.802Z,79.95
2019-01-24T15:28:01.076Z,80.11
2019-01-24T15:30:34.831Z,80.20
2019-01-24T15:33:13.424Z,80.21
2019-01-24T15:35:48.509Z,80.21
2019-01-24T15:38:26.483Z,80.26
2019-01-24T15:41:02.072Z,80.31
2019-01-24T15:43:37.801Z,80.34
2019-01-24T15:46:15.485Z,80.40
2019-01-24T15:48:57.815Z,80.37
2019-01-24T15:51:37.889Z,80.13
2019-01-24T15:54:14.788Z,80.05
2019-01-24T15:56:50.568Z,80.14
2019-01-24T15:59:23.695Z,80.13
2019-01-24T16:01:58.991Z,80.02
2019-01-24T16:04:33.839Z,79.98
2019-01-24T16:07:07.743Z,79.96
2019-01-24T16:09:42.207Z,79.93
2019-01-24T16:12:17.790Z,79.96
2019-01-24T16:14:52.623Z,80.04
2019-01-24T16:17:28.429Z,80.09
2019-01-24T16:20:10.012Z,79.95
2019-01-24T16:22:47.455Z,79.87
2019-01-24T16:25:26.599Z,79.71
2019-01-24T16:28:02.330Z,79.55
2019-01-24T16:30:39.727Z,79.25
2019-01-24T16:33:14.108Z,79.25
2019-01-24T16:35:49.877Z,79.22
2019-01-24T16:38:28.287Z,79.31
2019-01-24T16:41:04.055Z,79.37
2019-01-24T16:43:40.508Z,79.44
2019-01-24T16:46:14.022Z,79.42
2019-01-24T16:48:50.596Z,79.25
2019-01-24T16:51:30.296Z,78.59
2019-01-24T16:54:13.676Z,78.81
2019-01-24T16:56:52.766Z,78.92
2019-01-24T16:59:28.247Z,78.97
2019-01-24T17:02:01.708Z,78.81
2019-01-24T17:04:36.969Z,78.37
2019-01-24T17:07:12.419Z,78.16
2019-01-24T17:09:47.514Z,77.81
2019-01-24T17:12:20.446Z,77.61
2019-01-24T17:15:08.380Z,76.99
2019-01-24T17:17:42.792Z,76.60
2019-01-24T17:20:24.162Z,76.45
2019-01-24T17:23:01.256Z,76.19
2019-01-24T17:25:35.111Z,76.14
2019-01-24T17:28:08.746Z,76.31
2019-01-24T17:30:44.592Z,76.19
2019-01-24T17:33:19.841Z,76.10
2019-01-24T17:35:53.636Z,76.22
2019-01-24T17:38:27.672Z,76.37
2019-01-24T17:41:02.366Z,76.65
2019-01-24T17:43:38.433Z,76.69
2019-01-24T17:46:12.370Z,76.85
2019-01-24T17:48:45.466Z,76.72
2019-01-24T17:51:20.034Z,76.45
2019-01-24T17:53:53.766Z,76.39
2019-01-24T17:56:29.101Z,76.64
2019-01-24T17:59:04.262Z,76.79
2019-01-24T18:01:37.375Z,76.99
2019-01-24T18:04:13.354Z,76.97
2019-01-24T18:06:47.058Z,77.81
2019-01-24T18:09:22.957Z,78.87
2019-01-24T18:11:59.760Z,79.31
2019-01-24T18:14:35.618Z,79.51
2019-01-24T18:17:13.329Z,79.43
2019-01-24T18:19:56.020Z,79.38
2019-01-24T18:22:31.365Z,79.29
2019-01-24T18:25:09.765Z,79.21
2019-01-24T18:27:49.143Z,79.23
2019-01-24T18:30:29.197Z,79.13
2019-01-24T18:33:02.473Z,79.19
2019-01-24T18:35:38.191Z,79.13
2019-01-24T18:38:14.542Z,79.08
2019-01-24T18:40:51.350Z,79.06
2019-01-24T18:43:28.555Z,79.07
2019-01-24T18:46:06.677Z,78.99
2019-01-24T18:48:41.279Z,78.84
2019-01-24T18:51:29.415Z,78.66
2019-01-24T18:54:08.707Z,78.58
2019-01-24T18:56:44.805Z,78.46
2019-01-24T18:59:20.613Z,78.51
2019-01-24T19:02:00.562Z,78.53
2019-01-24T19:04:34.625Z,78.54
2019-01-24T19:07:09.073Z,78.52
2019-01-24T19:09:44.558Z,78.62
2019-01-24T19:12:20.465Z,78.64
2019-01-24T19:14:54.546Z,78.58
2019-01-24T19:17:29.464Z,78.55
2019-01-24T19:20:05.090Z,78.50
2019-01-24T19:22:38.217Z,78.49
2019-01-24T19:25:15.211Z,78.50
2019-01-24T19:27:55.919Z,78.52
2019-01-24T19:30:39.317Z,78.77
2019-01-24T19:33:15.409Z,78.84
2019-01-24T19:36:00.262Z,78.84
2019-01-24T19:38:38.059Z,78.89
2019-01-24T19:41:14.072Z,78.86
2019-01-24T19:43:49.486Z,78.96
2019-01-24T19:46:24.729Z,78.98
2019-01-24T19:49:03.278Z,79.08
2019-01-24T19:51:37.365Z,79.15
2019-01-24T19:54:16.004Z,79.19
2019-01-24T19:56:54.882Z,79.28
2019-01-24T19:59:30.834Z,79.37
2019-01-24T20:02:06.560Z,79.37
2019-01-24T20:04:46.250Z,79.51
2019-01-24T20:07:23.314Z,79.60
2019-01-24T20:09:57.866Z,79.62
2019-01-24T20:12:34.333Z,79.67
2019-01-24T20:15:20.976Z,79.72
2019-01-24T20:17:58.382Z,79.81
2019-01-24T20:20:37.681Z,79.97
2019-01-24T20:23:11.814Z,80.11
2019-01-24T20:25:47.535Z,80.28
2019-01-24T20:28:21.962Z,80.35
2019-01-24T20:30:58.416Z,80.27
2019-01-24T20:33:35.200Z,80.12
2019-01-24T20:36:15.060Z,80.07
2019-01-24T20:38:52.997Z,79.99
2019-01-24T20:41:26.837Z,80.15
2019-01-24T20:44:02.449Z,80.23
2019-01-24T20:46:35.959Z,80.33
2019-01-24T20:49:13.068Z,80.39
2019-01-24T20:51:49.439Z,80.42
2019-01-24T20:54:22.648Z,80.42
2019-01-24T20:56:57.431Z,80.40
2019-01-24T20:59:33.715Z,80.49
2019-01-24T21:02:15.236Z,80.53
2019-01-24T21:04:56.415Z,80.56
2019-01-24T21:07:33.714Z,80.58
2019-01-24T21:10:12.386Z,80.54
2019-01-24T21:12:50.481Z,80.55
2019-01-24T21:15:26.522Z,80.62
2019-01-24T21:17:59.747Z,80.60
2019-01-24T21:20:37.505Z,80.74
2019-01-24T21:23:15.585Z,80.66
2019-01-24T21:25:51.554Z,80.80
2019-01-24T21:28:28.265Z,80.84
2019-01-24T21:31:01.796Z,80.90
2019-01-24T21:33:43.347Z,80.96
2019-01-24T21:36:19.394Z,81.17
2019-01-24T21:38:57.537Z,81.16
2019-01-24T21:41:30.600Z,81.06
2019-01-24T21:44:04.698Z,81.05
2019-01-24T21:46:40.086Z,81.03
2019-01-24T21:49:14.103Z,81.06
2019-01-24T21:51:53.719Z,81.15
2019-01-24T21:54:32.454Z,81.18
2019-01-24T21:57:07.858Z,81.27
2019-01-24T21:59:44.079Z,81.33
2019-01-24T22:02:20.884Z,81.35
2019-01-24T22:04:54.929Z,81.30
2019-01-24T22:07:29.314Z,81.35
2019-01-24T22:10:03.337Z,81.39
2019-01-24T22:12:37.680Z,81.46
2019-01-24T22:15:19.764Z,81.53
2019-01-24T22:17:57.476Z,81.48
2019-01-24T22:20:35.990Z,81.60
2019-01-24T22:23:14.442Z,81.65
2019-01-24T22:25:49.956Z,81.79
2019-01-24T22:28:26.816Z,81.84
2019-01-24T22:31:05.832Z,81.92
2019-01-24T22:33:43.107Z,82.03
2019-01-24T22:36:16.963Z,82.08
2019-01-24T22:38:50.895Z,82.11
2019-01-24T22:41:26.708Z,82.15
2019-01-24T22:44:02.501Z,82.23
2019-01-24T22:46:36.531Z,82.25
2019-01-24T22:49:15.962Z,82.29
2019-01-24T22:51:49.908Z,82.40
2019-01-24T22:54:28.905Z,82.43
2019-01-24T22:57:06.047Z,82.46
2019-01-24T22:59:41.010Z,82.59
2019-01-24T23:02:25.383Z,82.76
2019-01-24T23:04:58.278Z,82.82
2019-01-24T23:07:36.286Z,82.83
2019-01-24T23:10:10.696Z,82.73
2019-01-24T23:12:46.417Z,82.75
2019-01-24T23:15:22.674Z,82.88
2019-01-24T23:17:55.712Z,82.98
2019-01-24T23:20:34.289Z,83.07
2019-01-24T23:23:11.883Z,83.14
2019-01-24T23:25:46.491Z,83.20
2019-01-24T23:28:21.784Z,83.22
2019-01-24T23:30:56.879Z,83.27
2019-01-24T23:33:29.820Z,83.25
2019-01-24T23:36:06.355Z,83.29
2019-01-24T23:38:41.943Z,83.33
2019-01-24T23:41:15.135Z,83.34
2019-01-24T23:43:48.018Z,83.25
2019-01-24T23:46:21.219Z,83.25
2019-01-24T23:48:55.482Z,83.29
2019-01-24T23:51:28.425Z,83.30
2019-01-24T23:54:01.381Z,83.30
2019-01-24T23:56:34.783Z,83.25
2019-01-24T23:59:08.584Z,83.23
